Time;durP1;ratioP1;P1;durP2;ratioP2;P2;SDS_P1;SDS_P2;PMS_P1;PMS_P2;Temp;Humidity;BMP_temperature;BMP_pressure;BME280_temperature;BME280_humidity;BME280_pressure;Samples;Min_cycle;Max_cycle;Signal;HPM_P1;HPM_P2
2021/09/17 00:01:54;;;;;;;24.35;6.72;;;;;;;;;;5073623;28;20031;-76
2021/09/17 00:04:20;;;;;;;21.60;6.28;;;;;;;;;;5056725;28;20048;-76
2021/09/17 00:06:46;;;;;;;17.30;5.88;;;;;;;;;;5073712;28;20027;-76
2021/09/17 00:09:14;;;;;;;20.75;6.72;;;;;;;;;;5073464;28;20078;-76
2021/09/17 00:11:40;;;;;;;21.58;6.85;;;;;;;;;;5074263;28;20465;-76
2021/09/17 00:14:06;;;;;;;17.05;6.25;;;;;;;;;;5069684;28;20020;-74
2021/09/17 00:16:32;;;;;;;31.25;7.38;;;;;;;;;;5074507;28;20099;-76
2021/09/17 00:19:08;;;;;;;30.17;6.60;;;;;;;;;;5071391;28;20040;-76
2021/09/17 00:21:34;;;;;;;23.48;6.55;;;;;;;;;;5062471;28;20021;-75
2021/09/17 00:24:00;;;;;;;31.25;7.00;;;;;;;;;;5073661;28;20101;-76
2021/09/17 00:26:27;;;;;;;23.30;6.80;;;;;;;;;;5074129;28;20035;-76
2021/09/17 00:28:53;;;;;;;24.65;6.88;;;;;;;;;;5077360;28;20441;-77
2021/09/17 00:31:19;;;;;;;25.15;7.47;;;;;;;;;;5072309;28;20533;-76
2021/09/17 00:33:45;;;;;;;25.75;7.00;;;;;;;;;;5068011;28;20416;-75
2021/09/17 00:36:11;;;;;;;17.35;7.07;;;;;;;;;;5073617;28;20362;-75
2021/09/17 00:38:37;;;;;;;22.65;6.82;;;;;;;;;;5071404;28;20358;-75
2021/09/17 00:41:03;;;;;;;21.75;6.45;;;;;;;;;;5070687;28;20029;-75
2021/09/17 00:43:29;;;;;;;21.55;6.82;;;;;;;;;;5073782;28;20056;-76
2021/09/17 00:45:55;;;;;;;26.63;6.97;;;;;;;;;;5073760;28;20078;-76
2021/09/17 00:48:21;;;;;;;19.23;6.75;;;;;;;;;;5077537;28;20071;-76
2021/09/17 00:50:48;;;;;;;22.83;6.25;;;;;;;;;;5070736;28;20036;-75
2021/09/17 00:53:14;;;;;;;20.98;6.60;;;;;;;;;;5069032;28;20017;-76
2021/09/17 00:55:40;;;;;;;19.90;6.10;;;;;;;;;;5073111;28;20178;-76
2021/09/17 00:58:06;;;;;;;19.17;6.60;;;;;;;;;;5074008;28;20381;-76
2021/09/17 01:00:32;;;;;;;25.00;7.47;;;;;;;;;;5070372;28;20028;-75
2021/09/17 01:03:00;;;;;;;21.70;6.80;;;;;;;;;;5070998;28;20049;-76
2021/09/17 01:05:31;;;;;;;23.20;6.95;;;;;;;;;;5073131;28;20034;-76
2021/09/17 01:07:57;;;;;;;23.90;6.82;;;;;;;;;;5050383;28;20576;-76
2021/09/17 01:10:24;;;;;;;27.10;7.13;;;;;;;;;;5073321;28;20021;-76
2021/09/17 01:12:50;;;;;;;29.00;7.60;;;;;;;;;;5070502;28;20032;-75
2021/09/17 01:15:17;;;;;;;22.88;7.40;;;;;;;;;;5069195;28;20451;-76
2021/09/17 01:17:45;;;;;;;22.88;7.05;;;;;;;;;;5072647;28;20104;-75
2021/09/17 01:20:13;;;;;;;22.77;7.28;;;;;;;;;;5055051;28;20039;-76
2021/09/17 01:22:40;;;;;;;28.27;7.57;;;;;;;;;;5053201;28;20028;-75
2021/09/17 01:25:10;;;;;;;22.20;6.32;;;;;;;;;;5070841;28;20033;-75
2021/09/17 01:27:36;;;;;;;21.63;7.07;;;;;;;;;;5075002;28;20043;-76
2021/09/17 01:30:09;;;;;;;22.50;6.82;;;;;;;;;;5062448;28;20079;-76
2021/09/17 01:32:35;;;;;;;22.40;6.40;;;;;;;;;;5070301;28;20052;-77
2021/09/17 01:35:05;;;;;;;24.73;7.50;;;;;;;;;;5072974;28;20048;-77
2021/09/17 01:37:31;;;;;;;20.88;6.00;;;;;;;;;;5053571;28;20393;-76
2021/09/17 01:39:57;;;;;;;21.17;6.60;;;;;;;;;;5072325;28;20361;-75
2021/09/17 01:42:23;;;;;;;18.30;6.57;;;;;;;;;;5054174;28;20021;-76
2021/09/17 01:44:49;;;;;;;23.02;7.30;;;;;;;;;;5065935;28;20032;-77
2021/09/17 01:47:15;;;;;;;26.38;7.05;;;;;;;;;;5054205;28;20078;-77
2021/09/17 01:49:44;;;;;;;22.83;6.78;;;;;;;;;;5073084;28;20027;-76
2021/09/17 01:52:10;;;;;;;21.45;7.32;;;;;;;;;;5050509;28;20039;-76
2021/09/17 01:54:36;;;;;;;23.75;7.03;;;;;;;;;;5072482;28;20103;-77
2021/09/17 01:57:03;;;;;;;24.17;6.75;;;;;;;;;;5071653;28;20021;-77
2021/09/17 01:59:29;;;;;;;23.92;6.80;;;;;;;;;;5071992;28;20038;-77
2021/09/17 02:02:00;;;;;;;25.98;7.38;;;;;;;;;;5070782;28;20031;-77
2021/09/17 02:04:27;;;;;;;21.58;6.95;;;;;;;;;;5059830;28;20401;-77
2021/09/17 02:06:53;;;;;;;29.10;7.40;;;;;;;;;;5068927;28;20043;-77
2021/09/17 02:09:19;;;;;;;24.48;7.28;;;;;;;;;;5079981;28;20131;-76
2021/09/17 02:11:45;;;;;;;25.45;7.05;;;;;;;;;;5070569;28;20057;-76
2021/09/17 02:14:11;;;;;;;22.90;7.90;;;;;;;;;;5069616;28;20021;-76
2021/09/17 02:16:38;;;;;;;23.23;7.30;;;;;;;;;;5068582;28;20029;-74
2021/09/17 02:19:07;;;;;;;25.30;8.10;;;;;;;;;;5071346;28;20040;-76
2021/09/17 02:21:33;;;;;;;22.70;7.90;;;;;;;;;;5062321;28;20031;-74
2021/09/17 02:23:59;;;;;;;23.73;7.43;;;;;;;;;;5068974;28;20031;-75
2021/09/17 02:26:35;;;;;;;23.02;6.93;;;;;;;;;;5068275;28;20020;-76
2021/09/17 02:29:05;;;;;;;28.95;7.15;;;;;;;;;;5076558;28;20039;-75
2021/09/17 02:31:36;;;;;;;23.45;7.82;;;;;;;;;;5072151;28;20044;-76
2021/09/17 02:34:02;;;;;;;23.23;7.00;;;;;;;;;;5066987;28;20043;-76
2021/09/17 02:36:28;;;;;;;18.08;7.18;;;;;;;;;;5071115;28;20021;-76
2021/09/17 02:39:00;;;;;;;21.83;7.05;;;;;;;;;;5071550;28;20036;-77
2021/09/17 02:41:26;;;;;;;26.45;7.57;;;;;;;;;;5063161;28;20534;-76
2021/09/17 02:43:52;;;;;;;24.88;8.25;;;;;;;;;;5059081;28;20025;-76
2021/09/17 02:46:18;;;;;;;24.83;7.47;;;;;;;;;;5070361;28;20036;-76
2021/09/17 02:48:45;;;;;;;22.13;7.32;;;;;;;;;;5063034;28;20036;-76
2021/09/17 02:51:14;;;;;;;24.85;7.63;;;;;;;;;;5071242;28;20020;-77
2021/09/17 02:53:40;;;;;;;21.52;6.97;;;;;;;;;;5058951;28;20076;-77
2021/09/17 02:56:06;;;;;;;20.42;6.75;;;;;;;;;;5065432;28;20473;-77
2021/09/17 02:58:32;;;;;;;25.08;7.53;;;;;;;;;;5067286;28;20515;-76
2021/09/17 03:00:58;;;;;;;20.80;7.10;;;;;;;;;;5067044;28;20527;-76
2021/09/17 03:03:24;;;;;;;19.20;7.53;;;;;;;;;;5067479;28;20482;-77
2021/09/17 03:05:53;;;;;;;20.65;6.70;;;;;;;;;;5066063;28;20035;-77
2021/09/17 03:08:19;;;;;;;23.40;6.97;;;;;;;;;;5053077;28;20045;-76
2021/09/17 03:10:45;;;;;;;21.35;7.15;;;;;;;;;;5079129;28;20039;-76
2021/09/17 03:13:12;;;;;;;19.60;7.22;;;;;;;;;;5049780;28;20039;-77
2021/09/17 03:15:38;;;;;;;21.15;7.10;;;;;;;;;;5068794;28;20024;-76
2021/09/17 03:18:04;;;;;;;23.48;7.80;;;;;;;;;;5059927;28;20032;-76
2021/09/17 03:20:30;;;;;;;22.73;7.82;;;;;;;;;;5057262;28;20016;-72
2021/09/17 03:22:56;;;;;;;22.70;6.80;;;;;;;;;;5068579;28;20479;-77
2021/09/17 03:25:23;;;;;;;18.35;7.15;;;;;;;;;;5049306;28;20029;-77
2021/09/17 03:27:49;;;;;;;27.48;7.22;;;;;;;;;;5069229;28;20583;-76
2021/09/17 03:30:18;;;;;;;21.92;7.25;;;;;;;;;;5066088;28;20032;-76
2021/09/17 03:32:44;;;;;;;17.92;6.20;;;;;;;;;;5071141;28;20081;-77
2021/09/17 03:35:11;;;;;;;21.30;6.63;;;;;;;;;;5063872;28;20072;-75
2021/09/17 03:37:37;;;;;;;20.25;7.13;;;;;;;;;;5070095;28;20507;-76
2021/09/17 03:40:03;;;;;;;23.52;8.10;;;;;;;;;;5065899;28;20517;-77
2021/09/17 03:42:32;;;;;;;22.85;7.45;;;;;;;;;;5070278;28;20040;-77
2021/09/17 03:44:58;;;;;;;25.60;7.13;;;;;;;;;;5044652;28;20036;-76
2021/09/17 03:47:24;;;;;;;24.30;6.78;;;;;;;;;;5060255;28;20083;-77
2021/09/17 03:49:51;;;;;;;23.00;7.10;;;;;;;;;;5071354;28;20020;-77
2021/09/17 03:52:17;;;;;;;25.60;7.55;;;;;;;;;;5061454;28;20108;-77
2021/09/17 03:54:43;;;;;;;23.75;7.50;;;;;;;;;;5052787;28;20358;-76
2021/09/17 03:57:09;;;;;;;24.48;7.65;;;;;;;;;;5053175;28;20046;-73
2021/09/17 03:59:35;;;;;;;24.60;7.38;;;;;;;;;;5074218;28;20027;-77
2021/09/17 04:02:01;;;;;;;25.90;8.27;;;;;;;;;;5073492;28;20086;-75
2021/09/17 04:04:31;;;;;;;17.23;7.35;;;;;;;;;;5070774;28;20417;-77
2021/09/17 04:06:58;;;;;;;21.42;7.25;;;;;;;;;;5056498;28;20432;-78
2021/09/17 04:09:24;;;;;;;26.55;7.68;;;;;;;;;;5071237;28;20047;-76
2021/09/17 04:11:50;;;;;;;24.33;7.45;;;;;;;;;;5066127;28;20029;-77
2021/09/17 04:14:16;;;;;;;25.40;7.53;;;;;;;;;;5073873;28;20036;-75
2021/09/17 04:16:43;;;;;;;19.08;7.00;;;;;;;;;;5072386;28;20481;-77
2021/09/17 04:19:09;;;;;;;21.40;7.45;;;;;;;;;;5073713;28;20032;-77
2021/09/17 04:21:35;;;;;;;28.13;7.85;;;;;;;;;;5066268;28;20035;-76
2021/09/17 04:24:01;;;;;;;26.02;7.75;;;;;;;;;;5072451;28;20140;-76
2021/09/17 04:26:28;;;;;;;46.92;7.65;;;;;;;;;;5077089;28;20359;-77
2021/09/17 04:29:03;;;;;;;28.67;8.02;;;;;;;;;;5059233;28;20037;-77
2021/09/17 04:31:34;;;;;;;43.90;8.55;;;;;;;;;;5074409;28;20112;-76
2021/09/17 04:34:00;;;;;;;41.25;7.85;;;;;;;;;;5068404;28;20389;-77
2021/09/17 04:36:26;;;;;;;54.35;8.98;;;;;;;;;;5072546;28;20029;-75
2021/09/17 04:39:26;;;;;;;27.77;8.00;;;;;;;;;;5069679;28;20043;-75
2021/09/17 04:42:10;;;;;;;24.50;6.90;;;;;;;;;;4955661;28;20050;-72
2021/09/17 04:44:36;;;;;;;25.20;7.53;;;;;;;;;;4972761;28;20089;-77
2021/09/17 04:47:03;;;;;;;26.80;7.50;;;;;;;;;;4971514;28;20030;-75
2021/09/17 04:49:29;;;;;;;26.20;7.18;;;;;;;;;;4971212;28;20030;-77
2021/09/17 04:51:55;;;;;;;50.38;8.48;;;;;;;;;;4963173;28;20038;-79
2021/09/17 04:54:21;;;;;;;31.30;8.95;;;;;;;;;;4946690;28;20043;-75
2021/09/17 04:56:47;;;;;;;28.98;9.07;;;;;;;;;;4946373;28;20031;-73
2021/09/17 04:59:13;;;;;;;30.77;8.52;;;;;;;;;;4967916;28;20039;-69
2021/09/17 05:01:39;;;;;;;23.10;8.45;;;;;;;;;;4966518;28;20035;-74
2021/09/17 05:04:05;;;;;;;25.00;8.93;;;;;;;;;;4969517;28;20047;-86
2021/09/17 05:06:31;;;;;;;34.88;9.60;;;;;;;;;;4960131;28;20432;-72
2021/09/17 05:21:08;;;;;;;29.33;7.78;;;;;;;;;;4752311;27;10640979;-77
2021/09/17 05:23:34;;;;;;;33.45;8.23;;;;;;;;;;5107954;28;20108;-74
2021/09/17 05:26:02;;;;;;;29.45;8.75;;;;;;;;;;5124736;28;20444;-72
2021/09/17 05:28:28;;;;;;;33.67;9.23;;;;;;;;;;5112037;28;20102;-71
2021/09/17 05:30:54;;;;;;;26.25;8.90;;;;;;;;;;5110829;28;20433;-73
2021/09/17 05:33:23;;;;;;;25.52;9.07;;;;;;;;;;5128841;28;20023;-70
2021/09/17 05:35:49;;;;;;;30.27;9.27;;;;;;;;;;5109887;28;20500;-73
2021/09/17 05:38:15;;;;;;;32.03;10.95;;;;;;;;;;5115426;28;20038;-67
2021/09/17 05:40:41;;;;;;;34.22;9.05;;;;;;;;;;5129358;28;20051;-72
2021/09/17 05:43:07;;;;;;;28.65;8.10;;;;;;;;;;5125665;28;20096;-67
2021/09/17 05:45:33;;;;;;;29.20;8.30;;;;;;;;;;5121800;28;20022;-67
2021/09/17 05:47:59;;;;;;;47.50;9.75;;;;;;;;;;5124507;28;20027;-73
2021/09/17 05:50:25;;;;;;;82.00;11.13;;;;;;;;;;5117258;28;20614;-71
2021/09/17 05:52:51;;;;;;;29.90;10.07;;;;;;;;;;5116947;28;20023;-65
2021/09/17 05:55:17;;;;;;;40.00;9.48;;;;;;;;;;5122924;28;20039;-67
2021/09/17 05:57:43;;;;;;;33.22;8.00;;;;;;;;;;5124765;28;20019;-68
2021/09/17 06:00:11;;;;;;;22.77;8.57;;;;;;;;;;5109931;28;20024;-68
2021/09/17 06:02:37;;;;;;;35.63;8.48;;;;;;;;;;5121006;28;20103;-77
2021/09/17 06:05:03;;;;;;;29.27;8.55;;;;;;;;;;5119971;28;20019;-66
2021/09/17 06:07:29;;;;;;;25.77;9.40;;;;;;;;;;5124486;28;20024;-68
2021/09/17 06:09:55;;;;;;;43.38;9.95;;;;;;;;;;5100914;28;20039;-71
2021/09/17 06:12:22;;;;;;;30.60;11.02;;;;;;;;;;5110816;28;20026;-68
2021/09/17 06:14:48;;;;;;;31.95;10.20;;;;;;;;;;5106454;28;20032;-65
2021/09/17 06:17:14;;;;;;;29.23;8.95;;;;;;;;;;5107529;28;20039;-68
2021/09/17 06:19:40;;;;;;;31.90;9.52;;;;;;;;;;5105930;28;20040;-67
2021/09/17 06:22:06;;;;;;;27.95;8.90;;;;;;;;;;5093240;28;20428;-67
2021/09/17 06:24:36;;;;;;;30.92;9.02;;;;;;;;;;5092687;28;20020;-69
2021/09/17 06:27:02;;;;;;;24.15;8.38;;;;;;;;;;5090435;28;20073;-73
2021/09/17 06:29:28;;;;;;;24.98;8.55;;;;;;;;;;5092688;28;20042;-73
2021/09/17 06:31:54;;;;;;;28.02;8.48;;;;;;;;;;5074754;28;20032;-74
2021/09/17 06:34:20;;;;;;;34.38;9.48;;;;;;;;;;5093353;28;20481;-71
2021/09/17 06:36:46;;;;;;;37.17;9.30;;;;;;;;;;5094385;28;20085;-70
2021/09/17 06:39:12;;;;;;;30.23;8.23;;;;;;;;;;5092903;28;20466;-73
2021/09/17 06:41:38;;;;;;;29.52;7.85;;;;;;;;;;5093196;28;20523;-67
2021/09/17 06:44:04;;;;;;;26.27;7.53;;;;;;;;;;5092441;28;20024;-70
2021/09/17 06:46:30;;;;;;;35.28;7.30;;;;;;;;;;5093244;28;20393;-73
2021/09/17 06:48:56;;;;;;;23.40;7.32;;;;;;;;;;5095453;28;20097;-75
2021/09/17 06:51:22;;;;;;;22.52;7.10;;;;;;;;;;5092285;28;20047;-72
2021/09/17 06:53:48;;;;;;;28.23;8.75;;;;;;;;;;5093166;28;20077;-72
2021/09/17 06:56:14;;;;;;;27.05;9.13;;;;;;;;;;5091622;28;20032;-72
2021/09/17 06:58:41;;;;;;;24.02;9.00;;;;;;;;;;5093355;28;20431;-71
2021/09/17 07:01:07;;;;;;;25.88;9.07;;;;;;;;;;5093239;28;20024;-65
2021/09/17 07:03:33;;;;;;;35.38;10.73;;;;;;;;;;5091836;28;20389;-65
2021/09/17 07:05:59;;;;;;;27.05;8.98;;;;;;;;;;5092145;28;20032;-70
2021/09/17 07:08:25;;;;;;;29.88;9.55;;;;;;;;;;5091774;28;20044;-75
2021/09/17 07:11:02;;;;;;;37.50;9.55;;;;;;;;;;5090778;28;20031;-72
2021/09/17 07:14:04;;;;;;;31.58;9.60;;;;;;;;;;5074127;28;20107;-74
2021/09/17 07:16:32;;;;;;;22.65;8.50;;;;;;;;;;5093170;28;20040;-70
2021/09/17 07:18:58;;;;;;;25.23;8.75;;;;;;;;;;5092265;28;20361;-69
2021/09/17 07:21:24;;;;;;;27.05;8.45;;;;;;;;;;5092284;28;20039;-69
2021/09/17 07:23:50;;;;;;;26.13;7.25;;;;;;;;;;5092010;28;20843;-71
2021/09/17 07:26:16;;;;;;;24.02;7.82;;;;;;;;;;5092277;28;20489;-71
2021/09/17 07:28:43;;;;;;;28.17;8.55;;;;;;;;;;5091105;28;20488;-69
2021/09/17 07:31:09;;;;;;;20.80;7.00;;;;;;;;;;5091846;28;20513;-71
2021/09/17 07:33:35;;;;;;;25.15;8.55;;;;;;;;;;5090604;28;20028;-76
2021/09/17 07:36:01;;;;;;;22.63;7.35;;;;;;;;;;5072603;28;20053;-73
2021/09/17 07:38:46;;;;;;;36.90;8.40;;;;;;;;;;5090814;28;20073;-71
2021/09/17 07:41:12;;;;;;;27.85;7.80;;;;;;;;;;5073156;28;20027;-72
2021/09/17 07:43:38;;;;;;;24.73;7.40;;;;;;;;;;5074387;28;20047;-72
2021/09/17 07:46:05;;;;;;;23.40;7.70;;;;;;;;;;5091327;28;20050;-78
2021/09/17 07:48:33;;;;;;;27.55;7.85;;;;;;;;;;5081736;28;20032;-71
2021/09/17 07:50:59;;;;;;;24.13;8.15;;;;;;;;;;5107116;28;20043;-66
2021/09/17 07:53:25;;;;;;;26.50;8.07;;;;;;;;;;5112986;28;20058;-66
2021/09/17 07:55:51;;;;;;;28.30;7.90;;;;;;;;;;5111554;28;20020;-70
2021/09/17 07:58:17;;;;;;;24.33;8.40;;;;;;;;;;5112263;28;20042;-66
2021/09/17 08:00:43;;;;;;;26.02;7.60;;;;;;;;;;5110371;28;20153;-67
2021/09/17 08:03:09;;;;;;;22.95;8.55;;;;;;;;;;5109484;28;20027;-66
2021/09/17 08:05:35;;;;;;;22.58;7.90;;;;;;;;;;5111063;28;20034;-67
2021/09/17 08:08:01;;;;;;;20.02;7.43;;;;;;;;;;5114194;27;20399;-66
2021/09/17 08:10:27;;;;;;;23.85;8.10;;;;;;;;;;5113401;27;20027;-67
2021/09/17 08:12:53;;;;;;;24.75;8.15;;;;;;;;;;5109710;27;20024;-67
2021/09/17 08:15:19;;;;;;;31.52;8.27;;;;;;;;;;5115969;27;20489;-67
2021/09/17 08:18:11;;;;;;;26.67;7.65;;;;;;;;;;5110622;28;20411;-72
2021/09/17 08:20:53;;;;;;;25.40;7.78;;;;;;;;;;5092603;28;20130;-71
2021/09/17 08:23:23;;;;;;;31.20;8.07;;;;;;;;;;5093050;28;20024;-73
2021/09/17 08:25:56;;;;;;;26.55;7.80;;;;;;;;;;5092896;28;20036;-79
2021/09/17 08:28:26;;;;;;;27.75;8.50;;;;;;;;;;5112013;28;20056;-73
2021/09/17 08:30:52;;;;;;;28.10;8.23;;;;;;;;;;5110333;27;20054;-66
2021/09/17 08:33:19;;;;;;;23.48;8.18;;;;;;;;;;5113042;27;20023;-66
2021/09/17 08:35:45;;;;;;;24.35;8.10;;;;;;;;;;5110830;28;20077;-65
2021/09/17 08:38:11;;;;;;;34.95;8.65;;;;;;;;;;5111441;28;20028;-66
2021/09/17 08:40:37;;;;;;;34.92;8.95;;;;;;;;;;5112482;27;20916;-67
2021/09/17 08:43:03;;;;;;;30.83;8.40;;;;;;;;;;5110734;28;20036;-78
2021/09/17 08:45:30;;;;;;;30.88;8.98;;;;;;;;;;5112187;28;20548;-75
2021/09/17 08:48:00;;;;;;;27.35;8.43;;;;;;;;;;5093176;28;20035;-75
2021/09/17 08:50:29;;;;;;;34.35;9.60;;;;;;;;;;5111910;28;20151;-76
2021/09/17 08:52:55;;;;;;;40.33;9.15;;;;;;;;;;5109698;28;20496;-80
2021/09/17 08:55:21;;;;;;;35.88;8.60;;;;;;;;;;5112240;28;20036;-80
2021/09/17 08:57:56;;;;;;;25.58;8.48;;;;;;;;;;5114450;27;20055;-73
2021/09/17 09:00:37;;;;;;;33.10;8.93;;;;;;;;;;5093841;28;20023;-75
2021/09/17 09:03:04;;;;;;;25.00;7.90;;;;;;;;;;5091467;28;20034;-74
2021/09/17 09:05:31;;;;;;;25.42;8.35;;;;;;;;;;5092133;28;20505;-66
2021/09/17 09:07:57;;;;;;;25.40;8.65;;;;;;;;;;5090384;28;20028;-67
2021/09/17 09:10:24;;;;;;;25.00;7.53;;;;;;;;;;5110455;28;20046;-67
2021/09/17 09:12:53;;;;;;;23.08;8.68;;;;;;;;;;5105859;28;20024;-67
2021/09/17 09:15:25;;;;;;;24.73;8.35;;;;;;;;;;5107497;28;20023;-67
2021/09/17 09:17:52;;;;;;;23.20;7.93;;;;;;;;;;5108923;28;20027;-75
2021/09/17 09:20:24;;;;;;;28.27;7.90;;;;;;;;;;5109788;28;20032;-71
2021/09/17 09:23:09;;;;;;;21.60;8.05;;;;;;;;;;5107461;28;20042;-71
2021/09/17 09:25:36;;;;;;;29.73;8.20;;;;;;;;;;5109732;28;20019;-73
2021/09/17 09:28:12;;;;;;;17.73;7.80;;;;;;;;;;5109728;28;20030;-70
2021/09/17 09:30:46;;;;;;;23.85;7.78;;;;;;;;;;5111084;28;20031;-71
2021/09/17 09:33:32;;;;;;;23.75;7.20;;;;;;;;;;5092638;28;20032;-80
2021/09/17 09:36:25;;;;;;;26.98;8.48;;;;;;;;;;5109890;28;20258;-75
2021/09/17 09:38:55;;;;;;;20.67;7.32;;;;;;;;;;5107148;28;20101;-78
2021/09/17 09:41:32;;;;;;;24.38;7.38;;;;;;;;;;5113795;28;20476;-77
2021/09/17 09:44:05;;;;;;;24.60;7.70;;;;;;;;;;5108583;28;20034;-76
2021/09/17 09:46:40;;;;;;;19.65;7.28;;;;;;;;;;5106902;28;20024;-76
2021/09/17 09:49:09;;;;;;;25.33;8.32;;;;;;;;;;5111031;28;20532;-81
2021/09/17 09:51:38;;;;;;;26.23;7.50;;;;;;;;;;5103357;28;20036;-81
2021/09/17 09:54:06;;;;;;;25.23;7.88;;;;;;;;;;5092891;28;20026;-81
2021/09/17 09:56:33;;;;;;;27.35;7.95;;;;;;;;;;5104887;28;20019;-78
2021/09/17 09:59:02;;;;;;;27.98;7.30;;;;;;;;;;5112796;28;20031;-81
2021/09/17 10:01:29;;;;;;;28.02;7.93;;;;;;;;;;5114425;28;20422;-78
2021/09/17 10:03:59;;;;;;;24.00;7.65;;;;;;;;;;5106378;28;20039;-83
2021/09/17 10:06:25;;;;;;;34.15;8.57;;;;;;;;;;5115115;27;20430;-78
2021/09/17 10:08:55;;;;;;;26.48;8.05;;;;;;;;;;5114613;27;20023;-74
2021/09/17 10:11:26;;;;;;;29.58;7.97;;;;;;;;;;5113388;28;20069;-79
2021/09/17 10:14:07;;;;;;;20.45;7.28;;;;;;;;;;5114199;27;20050;-70
2021/09/17 10:16:34;;;;;;;24.90;8.00;;;;;;;;;;5112482;28;20488;-71
2021/09/17 10:19:00;;;;;;;21.83;8.68;;;;;;;;;;5108355;27;20366;-72
2021/09/17 10:21:52;;;;;;;27.85;8.63;;;;;;;;;;5074443;28;20037;-72
2021/09/17 10:24:34;;;;;;;22.65;7.88;;;;;;;;;;5088452;28;20028;-71
2021/09/17 10:27:11;;;;;;;25.50;8.35;;;;;;;;;;5077076;28;20106;-71
2021/09/17 10:29:58;;;;;;;19.98;7.57;;;;;;;;;;5083925;28;20035;-71
2021/09/17 10:32:27;;;;;;;33.55;8.75;;;;;;;;;;5072917;28;20022;-74
2021/09/17 10:35:14;;;;;;;27.38;8.63;;;;;;;;;;5108528;28;20062;-72
2021/09/17 10:38:01;;;;;;;26.38;8.43;;;;;;;;;;5109516;28;20020;-70
2021/09/17 10:40:36;;;;;;;23.85;7.93;;;;;;;;;;5112295;28;20110;-73
2021/09/17 10:43:11;;;;;;;24.73;7.78;;;;;;;;;;5112836;28;20480;-73
2021/09/17 10:45:41;;;;;;;29.48;9.52;;;;;;;;;;5094697;28;20055;-66
2021/09/17 10:48:08;;;;;;;22.60;7.50;;;;;;;;;;5113503;28;20162;-72
2021/09/17 10:50:45;;;;;;;25.13;8.27;;;;;;;;;;5113109;27;20095;-68
2021/09/17 10:53:12;;;;;;;24.33;8.07;;;;;;;;;;5114342;28;20040;-75
2021/09/17 10:55:55;;;;;;;28.88;8.63;;;;;;;;;;5114409;28;20035;-70
2021/09/17 10:58:28;;;;;;;16.15;7.25;;;;;;;;;;5114329;28;20146;-77
2021/09/17 11:01:13;;;;;;;20.83;8.52;;;;;;;;;;5113743;28;20035;-77
2021/09/17 11:03:39;;;;;;;20.88;6.85;;;;;;;;;;5108249;28;20027;-66
2021/09/17 11:06:30;;;;;;;20.95;7.20;;;;;;;;;;5112735;28;20042;-70
2021/09/17 11:08:56;;;;;;;18.63;7.40;;;;;;;;;;5113600;28;20036;-66
2021/09/17 11:11:22;;;;;;;19.75;7.63;;;;;;;;;;5112514;27;20028;-69
2021/09/17 11:13:48;;;;;;;18.92;6.70;;;;;;;;;;5109831;28;20028;-69
2021/09/17 11:16:16;;;;;;;19.15;7.25;;;;;;;;;;5113582;28;20104;-70
2021/09/17 11:18:52;;;;;;;27.50;7.47;;;;;;;;;;5113205;28;20080;-75
2021/09/17 11:21:19;;;;;;;26.95;6.68;;;;;;;;;;5113204;28;20043;-71
2021/09/17 11:23:51;;;;;;;19.90;6.90;;;;;;;;;;5112633;27;20023;-73
2021/09/17 11:26:27;;;;;;;23.27;7.32;;;;;;;;;;5112711;28;20023;-71
2021/09/17 11:29:02;;;;;;;15.63;6.70;;;;;;;;;;5111101;28;20027;-72
2021/09/17 11:31:33;;;;;;;21.42;8.30;;;;;;;;;;5111713;28;20051;-76
2021/09/17 11:34:15;;;;;;;24.67;7.72;;;;;;;;;;5111999;28;20098;-73
2021/09/17 11:36:55;;;;;;;18.55;6.85;;;;;;;;;;5114153;27;20054;-73
2021/09/17 11:39:21;;;;;;;23.20;7.28;;;;;;;;;;5094027;28;20392;-71
2021/09/17 11:41:49;;;;;;;26.95;6.80;;;;;;;;;;5112493;28;20020;-72
2021/09/17 11:44:36;;;;;;;26.10;7.18;;;;;;;;;;5093458;28;20039;-73
2021/09/17 11:47:35;;;;;;;17.63;6.97;;;;;;;;;;5092053;28;20047;-69
2021/09/17 11:50:13;;;;;;;17.38;6.93;;;;;;;;;;5006798;28;20060;-68
2021/09/17 11:52:49;;;;;;;19.30;6.95;;;;;;;;;;5008453;28;20122;-68
2021/09/17 11:55:16;;;;;;;18.08;6.80;;;;;;;;;;5005400;28;20034;-65
2021/09/17 11:57:44;;;;;;;18.00;6.53;;;;;;;;;;5008641;28;20101;-66
2021/09/17 12:00:11;;;;;;;21.92;7.32;;;;;;;;;;5009825;28;20033;-67
2021/09/17 12:02:37;;;;;;;23.13;6.75;;;;;;;;;;5000871;28;20534;-67
2021/09/17 12:05:06;;;;;;;17.60;6.50;;;;;;;;;;5005427;28;20030;-73
2021/09/17 12:07:32;;;;;;;23.58;6.97;;;;;;;;;;5010931;28;20050;-74
2021/09/17 12:10:10;;;;;;;26.05;6.97;;;;;;;;;;5000299;28;20044;-74
2021/09/17 12:12:37;;;;;;;16.35;6.40;;;;;;;;;;5003514;28;20041;-70
2021/09/17 12:15:04;;;;;;;21.52;6.82;;;;;;;;;;5007487;28;20034;-70
2021/09/17 12:17:30;;;;;;;19.70;6.57;;;;;;;;;;5009543;28;20048;-67
2021/09/17 12:19:56;;;;;;;15.07;6.07;;;;;;;;;;5005454;28;20026;-70
2021/09/17 12:22:28;;;;;;;19.67;6.18;;;;;;;;;;5004967;28;20079;-65
2021/09/17 12:25:04;;;;;;;18.48;6.15;;;;;;;;;;5023703;28;20079;-71
2021/09/17 12:27:31;;;;;;;19.58;6.22;;;;;;;;;;5087500;28;20111;-74
2021/09/17 12:30:05;;;;;;;14.48;6.32;;;;;;;;;;5090740;28;20043;-78
2021/09/17 12:32:40;;;;;;;19.67;5.85;;;;;;;;;;5087644;28;20103;-82
2021/09/17 12:35:43;;;;;;;23.83;7.05;;;;;;;;;;5090568;28;20055;-71
2021/09/17 12:38:09;;;;;;;17.23;6.97;;;;;;;;;;5089137;28;20363;-68
2021/09/17 12:40:43;;;;;;;16.65;6.60;;;;;;;;;;5099578;28;20653;-72
2021/09/17 12:43:15;;;;;;;16.10;6.13;;;;;;;;;;5085781;28;20051;-76
2021/09/17 12:45:56;;;;;;;16.50;5.60;;;;;;;;;;5095195;28;20028;-75
2021/09/17 12:48:25;;;;;;;16.48;5.70;;;;;;;;;;5088479;28;20066;-77
2021/09/17 12:50:51;;;;;;;14.75;5.70;;;;;;;;;;5091358;28;20483;-77
2021/09/17 12:56:32;;;;;;;15.55;6.30;;;;;;;;;;5014827;28;20037;-75
2021/09/17 12:59:14;;;;;;;16.23;6.40;;;;;;;;;;4992637;28;20146;-71
2021/09/17 13:01:41;;;;;;;17.60;6.88;;;;;;;;;;5014646;28;20124;-69
2021/09/17 13:04:08;;;;;;;21.50;6.32;;;;;;;;;;5009573;28;20535;-73
2021/09/17 13:06:34;;;;;;;21.60;6.47;;;;;;;;;;5010755;28;20395;-67
2021/09/17 13:09:03;;;;;;;12.52;6.13;;;;;;;;;;5008317;28;20192;-67
2021/09/17 13:11:29;;;;;;;13.05;6.03;;;;;;;;;;5013308;28;20038;-71
2021/09/17 13:13:55;;;;;;;14.65;6.07;;;;;;;;;;5010985;28;20050;-67
2021/09/17 13:16:21;;;;;;;15.80;6.07;;;;;;;;;;5010661;28;20041;-72
2021/09/17 13:18:53;;;;;;;21.55;6.65;;;;;;;;;;5012456;28;20037;-70
2021/09/17 13:21:19;;;;;;;18.00;6.88;;;;;;;;;;5018543;28;20077;-70
2021/09/17 13:23:45;;;;;;;18.67;6.30;;;;;;;;;;5027834;28;20025;-74
2021/09/17 13:26:21;;;;;;;18.60;6.63;;;;;;;;;;5072504;28;20038;-80
2021/09/17 13:28:47;;;;;;;33.60;7.72;;;;;;;;;;5094000;28;20031;-73
2021/09/17 13:31:13;;;;;;;22.90;7.82;;;;;;;;;;5105716;28;20032;-75
2021/09/17 13:33:39;;;;;;;25.60;7.47;;;;;;;;;;5115815;28;20106;-73
2021/09/17 13:36:05;;;;;;;15.43;7.22;;;;;;;;;;5115309;28;20043;-70
2021/09/17 13:38:32;;;;;;;18.55;7.40;;;;;;;;;;5116080;28;20034;-71
2021/09/17 13:40:58;;;;;;;19.25;8.52;;;;;;;;;;5115391;28;20105;-73
2021/09/17 13:43:24;;;;;;;22.98;7.15;;;;;;;;;;5097197;28;20075;-71
2021/09/17 13:45:50;;;;;;;22.35;8.13;;;;;;;;;;5115252;28;20051;-69
2021/09/17 13:48:16;;;;;;;18.63;8.00;;;;;;;;;;5115651;28;20031;-74
2021/09/17 13:50:42;;;;;;;15.73;7.47;;;;;;;;;;5115103;28;20036;-74
2021/09/17 13:53:08;;;;;;;13.43;7.75;;;;;;;;;;5113308;28;20032;-74
2021/09/17 13:55:36;;;;;;;14.05;7.82;;;;;;;;;;5115671;28;20087;-69
2021/09/17 13:58:02;;;;;;;15.75;8.05;;;;;;;;;;5114585;28;20019;-74
2021/09/17 14:00:29;;;;;;;14.15;8.35;;;;;;;;;;5115405;28;20572;-72
2021/09/17 14:02:59;;;;;;;12.85;8.57;;;;;;;;;;5115333;28;20373;-75
2021/09/17 14:05:26;;;;;;;17.17;9.73;;;;;;;;;;5111235;27;20115;-71
2021/09/17 14:07:52;;;;;;;21.23;8.60;;;;;;;;;;5114584;28;20047;-70
2021/09/17 14:10:19;;;;;;;19.80;8.85;;;;;;;;;;5114810;28;20032;-73
2021/09/17 14:12:45;;;;;;;20.13;8.30;;;;;;;;;;5114131;28;20027;-74
2021/09/17 14:15:11;;;;;;;16.67;8.48;;;;;;;;;;5114416;28;20039;-72
2021/09/17 14:17:37;;;;;;;17.75;8.82;;;;;;;;;;5113427;28;20034;-74
2021/09/17 14:20:04;;;;;;;14.13;8.32;;;;;;;;;;5111704;28;20043;-74
2021/09/17 14:22:43;;;;;;;17.00;8.35;;;;;;;;;;5095959;28;20065;-73
2021/09/17 14:25:10;;;;;;;14.88;8.25;;;;;;;;;;5112708;28;20022;-79
2021/09/17 14:27:36;;;;;;;15.18;8.10;;;;;;;;;;5114145;28;20032;-75
2021/09/17 14:30:04;;;;;;;15.65;8.25;;;;;;;;;;5113127;28;20032;-75
2021/09/17 14:32:30;;;;;;;14.32;8.35;;;;;;;;;;5113913;28;20064;-77
2021/09/17 14:34:56;;;;;;;11.32;7.88;;;;;;;;;;5114126;28;20027;-75
2021/09/17 14:37:33;;;;;;;;;;;;;;;;;;;;;
2021/09/17 14:39:59;;;;;;;13.43;7.40;;;;;;;;;;5112127;28;20392;-77
2021/09/17 14:42:25;;;;;;;12.73;7.43;;;;;;;;;;5107649;28;20094;-80
2021/09/17 14:44:59;;;;;;;12.63;7.22;;;;;;;;;;5113884;27;20035;-71
2021/09/17 14:47:39;;;;;;;10.70;7.03;;;;;;;;;;5094992;28;20035;-73
2021/09/17 14:50:08;;;;;;;15.32;6.45;;;;;;;;;;5108792;28;20039;-73
2021/09/17 14:52:34;;;;;;;9.38;5.95;;;;;;;;;;5112925;28;20085;-69
2021/09/17 14:55:00;;;;;;;9.35;5.82;;;;;;;;;;5113790;28;20373;-68
2021/09/17 14:57:26;;;;;;;11.73;6.60;;;;;;;;;;5113617;28;20019;-68